Time;durP1;ratioP1;P1;durP2;ratioP2;P2;SDS_P1;SDS_P2;PMS_P1;PMS_P2;Temp;Humidity;BMP_temperature;BMP_pressure;BME280_temperature;BME280_humidity;BME280_pressure;Samples;Min_cycle;Max_cycle;Signal;HPM_P1;HPM_P2
2022/05/21 00:01:51;;;;;;;;;4.00;3.00;;;;;;;;5031440;28;45338;-66
2022/05/21 00:04:17;;;;;;;;;5.25;4.00;;;;;;;;5027848;28;45366;-66
2022/05/21 00:06:42;;;;;;;;;3.75;3.25;;;;;;;;5027715;28;46854;-65
2022/05/21 00:09:07;;;;;;;;;4.25;4.25;;;;;;;;5027643;28;48607;-66
2022/05/21 00:11:33;;;;;;;;;5.75;3.75;;;;;;;;5029425;28;45422;-66
2022/05/21 00:13:58;;;;;;;;;6.00;5.00;;;;;;;;5031017;28;45706;-66
2022/05/21 00:16:23;;;;;;;;;4.50;4.50;;;;;;;;5025999;28;45589;-65
2022/05/21 00:18:49;;;;;;;;;4.75;4.75;;;;;;;;5025250;28;48425;-65
2022/05/21 00:21:14;;;;;;;;;6.00;6.00;;;;;;;;5026900;28;45377;-65
2022/05/21 00:23:40;;;;;;;;;4.25;4.25;;;;;;;;5028757;28;45415;-64
2022/05/21 00:26:07;;;;;;;;;4.00;4.00;;;;;;;;5031800;28;45450;-65
2022/05/21 00:28:33;;;;;;;;;9.00;7.50;;;;;;;;5027538;28;47670;-64
2022/05/21 00:30:58;;;;;;;;;6.00;5.50;;;;;;;;5026390;28;45551;-64
2022/05/21 00:33:24;;;;;;;;;6.50;6.50;;;;;;;;5026765;28;45368;-64
2022/05/21 00:35:50;;;;;;;;;7.75;6.50;;;;;;;;5032602;28;45479;-65
2022/05/21 00:38:15;;;;;;;;;7.00;5.50;;;;;;;;5030462;28;48610;-65
2022/05/21 00:40:41;;;;;;;;;5.50;5.50;;;;;;;;5029818;28;45919;-65
2022/05/21 00:43:07;;;;;;;;;7.50;6.25;;;;;;;;5041577;28;45599;-65
2022/05/21 00:45:32;;;;;;;;;5.00;5.00;;;;;;;;5025722;28;45626;-65
2022/05/21 00:47:57;;;;;;;;;6.50;5.50;;;;;;;;5024267;28;45543;-65
2022/05/21 00:50:25;;;;;;;;;6.00;5.00;;;;;;;;5021033;28;45282;-66
2022/05/21 00:52:51;;;;;;;;;7.00;6.00;;;;;;;;5029094;28;45480;-65
2022/05/21 00:55:26;;;;;;;;;5.50;5.00;;;;;;;;5052380;28;45617;-66
2022/05/21 01:00:41;;;;;;;;;4.75;4.75;;;;;;;;5016144;28;45590;-66
2022/05/21 01:03:08;;;;;;;;;5.25;4.50;;;;;;;;5032157;28;45402;-66
2022/05/21 01:05:35;;;;;;;;;6.50;5.00;;;;;;;;5020378;28;45570;-66
2022/05/21 01:08:01;;;;;;;;;7.00;7.00;;;;;;;;5035956;28;47646;-66
2022/05/21 01:10:29;;;;;;;;;6.75;6.75;;;;;;;;5031996;28;45413;-65
2022/05/21 01:12:56;;;;;;;;;6.00;5.00;;;;;;;;5029336;28;45621;-65
2022/05/21 01:15:32;;;;;;;;;6.75;6.75;;;;;;;;5030704;28;45574;-66
2022/05/21 01:17:58;;;;;;;;;4.00;4.00;;;;;;;;5014344;28;46319;-66
2022/05/21 01:20:33;;;;;;;;;6.00;6.00;;;;;;;;5015688;28;45511;-66
2022/05/21 01:22:58;;;;;;;;;4.25;4.00;;;;;;;;5018622;28;45587;-65
2022/05/21 01:25:24;;;;;;;;;4.00;4.00;;;;;;;;5024832;28;45636;-66
2022/05/21 01:27:50;;;;;;;;;8.25;5.25;;;;;;;;5025387;28;46784;-66
2022/05/21 01:30:18;;;;;;;;;5.00;5.00;;;;;;;;5014943;28;45508;-66
2022/05/21 01:32:50;;;;;;;;;3.50;3.50;;;;;;;;5024853;28;45559;-66
2022/05/21 01:35:16;;;;;;;;;3.75;3.75;;;;;;;;5021002;28;45450;-65
2022/05/21 01:37:41;;;;;;;;;3.00;3.00;;;;;;;;5026609;28;45750;-67
2022/05/21 01:40:07;;;;;;;;;5.00;5.00;;;;;;;;5030487;28;45643;-66
2022/05/21 01:42:33;;;;;;;;;5.00;5.00;;;;;;;;5029403;28;45669;-67
2022/05/21 01:44:59;;;;;;;;;5.00;4.00;;;;;;;;5039981;28;45640;-66
2022/05/21 01:47:24;;;;;;;;;4.75;4.75;;;;;;;;5025093;28;47553;-67
2022/05/21 01:49:51;;;;;;;;;6.25;4.00;;;;;;;;5014353;28;45484;-66
2022/05/21 01:52:16;;;;;;;;;6.75;5.50;;;;;;;;5020875;28;45877;-66
2022/05/21 01:54:42;;;;;;;;;6.00;4.75;;;;;;;;5028177;28;45515;-65
2022/05/21 01:57:09;;;;;;;;;8.75;5.25;;;;;;;;5022766;28;45566;-66
2022/05/21 01:59:34;;;;;;;;;4.00;4.00;;;;;;;;5020009;28;45375;-66
2022/05/21 02:02:00;;;;;;;;;4.75;4.75;;;;;;;;5022365;28;45968;-65
2022/05/21 02:04:25;;;;;;;;;5.00;5.00;;;;;;;;5017235;28;45546;-65
2022/05/21 02:06:50;;;;;;;;;4.00;4.00;;;;;;;;5028008;28;47595;-65
2022/05/21 02:09:16;;;;;;;;;6.00;5.00;;;;;;;;5023438;28;45508;-65
2022/05/21 02:11:41;;;;;;;;;5.50;5.50;;;;;;;;5031172;28;45484;-65
2022/05/21 02:14:07;;;;;;;;;6.25;3.75;;;;;;;;5020145;28;45345;-66
2022/05/21 02:16:34;;;;;;;;;6.00;4.00;;;;;;;;5020584;28;45806;-65
2022/05/21 02:19:01;;;;;;;;;2.75;2.75;;;;;;;;5024955;28;45381;-66
2022/05/21 02:21:26;;;;;;;;;4.75;4.50;;;;;;;;5014697;28;45398;-65
2022/05/21 02:23:51;;;;;;;;;5.25;5.25;;;;;;;;5026211;28;45496;-64
2022/05/21 02:26:17;;;;;;;;;3.50;3.50;;;;;;;;5018510;28;45764;-64
2022/05/21 02:28:42;;;;;;;;;3.50;3.50;;;;;;;;5014270;28;45410;-65
2022/05/21 02:31:07;;;;;;;;;6.75;4.00;;;;;;;;5028465;28;45720;-66
2022/05/21 02:33:33;;;;;;;;;4.50;4.50;;;;;;;;5019684;28;45428;-65
2022/05/21 02:35:58;;;;;;;;;4.50;4.50;;;;;;;;5019285;28;46428;-66
2022/05/21 02:41:11;;;;;;;;;4.00;4.00;;;;;;;;5018184;28;45500;-65
2022/05/21 02:43:36;;;;;;;;;6.75;5.75;;;;;;;;5017510;28;45456;-64
2022/05/21 02:46:02;;;;;;;;;4.00;3.25;;;;;;;;5018042;28;46468;-64
2022/05/21 02:48:29;;;;;;;;;4.00;4.00;;;;;;;;5019627;28;45564;-64
2022/05/21 02:50:55;;;;;;;;;2.75;2.75;;;;;;;;5021995;28;45473;-66
2022/05/21 02:53:20;;;;;;;;;6.25;4.75;;;;;;;;5028607;28;45429;-65
2022/05/21 02:55:46;;;;;;;;;4.75;3.25;;;;;;;;5023502;28;47561;-65
2022/05/21 02:58:11;;;;;;;;;3.00;3.00;;;;;;;;5027702;28;45271;-64
2022/05/21 03:00:37;;;;;;;;;6.00;4.75;;;;;;;;5018103;28;45361;-65
2022/05/21 03:03:02;;;;;;;;;3.75;3.75;;;;;;;;5027034;28;45411;-64
2022/05/21 03:05:29;;;;;;;;;5.50;3.75;;;;;;;;5020391;28;45663;-64
2022/05/21 03:07:54;;;;;;;;;3.00;3.00;;;;;;;;5026957;28;45540;-64
2022/05/21 03:10:20;;;;;;;;;3.75;3.75;;;;;;;;5029663;28;45657;-64
2022/05/21 03:12:46;;;;;;;;;4.50;4.50;;;;;;;;5018997;28;45626;-65
2022/05/21 03:15:11;;;;;;;;;3.25;3.25;;;;;;;;5033611;28;46603;-66
2022/05/21 03:17:36;;;;;;;;;6.00;6.00;;;;;;;;5030443;28;45544;-65
2022/05/21 03:20:03;;;;;;;;;3.50;3.00;;;;;;;;5030036;28;48395;-65
2022/05/21 03:22:29;;;;;;;;;2.25;2.00;;;;;;;;5034487;28;45447;-65
2022/05/21 03:24:54;;;;;;;;;3.25;3.25;;;;;;;;5018322;28;48279;-64
2022/05/21 03:27:20;;;;;;;;;5.00;4.75;;;;;;;;5027373;28;47419;-65
2022/05/21 03:29:45;;;;;;;;;4.50;3.25;;;;;;;;5043624;28;46207;-65
2022/05/21 03:32:10;;;;;;;;;6.50;4.00;;;;;;;;5017795;28;45403;-66
2022/05/21 03:34:36;;;;;;;;;4.00;3.75;;;;;;;;5037921;28;48897;-65
2022/05/21 03:37:01;;;;;;;;;3.00;3.00;;;;;;;;5027484;28;45385;-64
2022/05/21 03:39:28;;;;;;;;;4.00;3.00;;;;;;;;5028586;28;45493;-64
2022/05/21 03:41:54;;;;;;;;;4.75;3.25;;;;;;;;5023344;28;45488;-65
2022/05/21 03:44:19;;;;;;;;;4.25;3.00;;;;;;;;5047089;28;47512;-65
2022/05/21 03:46:45;;;;;;;;;3.25;3.00;;;;;;;;5024196;28;45421;-65
2022/05/21 03:49:10;;;;;;;;;5.00;3.50;;;;;;;;5024785;28;45757;-64
2022/05/21 03:51:37;;;;;;;;;2.33;2.33;;;;;;;;5017379;28;45478;-65
2022/05/21 03:54:02;;;;;;;;;3.00;3.00;;;;;;;;5030537;28;45669;-64
2022/05/21 03:56:28;;;;;;;;;3.00;3.00;;;;;;;;5022360;28;45612;-65
2022/05/21 03:58:53;;;;;;;;;3.75;3.75;;;;;;;;5030600;28;45456;-64
2022/05/21 04:01:18;;;;;;;;;2.25;2.25;;;;;;;;5029500;28;45530;-64
2022/05/21 04:03:43;;;;;;;;;4.00;4.00;;;;;;;;5028546;28;46100;-64
2022/05/21 04:06:10;;;;;;;;;4.50;3.00;;;;;;;;5028695;28;45512;-63
2022/05/21 04:08:35;;;;;;;;;3.00;3.00;;;;;;;;5045402;28;45389;-64
2022/05/21 04:11:01;;;;;;;;;1.00;1.00;;;;;;;;5015508;28;45410;-64
2022/05/21 04:13:26;;;;;;;;;3.50;2.25;;;;;;;;5030440;28;45535;-64
2022/05/21 04:15:52;;;;;;;;;2.67;2.00;;;;;;;;5028512;28;45405;-64
2022/05/21 04:18:18;;;;;;;;;2.75;2.75;;;;;;;;5027260;28;47196;-64
2022/05/21 04:20:43;;;;;;;;;4.25;3.00;;;;;;;;5029566;28;45809;-64
2022/05/21 04:23:08;;;;;;;;;3.33;2.00;;;;;;;;5031974;28;45410;-65
2022/05/21 04:25:33;;;;;;;;;3.00;3.00;;;;;;;;5030381;28;45374;-64
2022/05/21 04:27:59;;;;;;;;;3.00;3.00;;;;;;;;5027188;28;45465;-64
2022/05/21 04:30:28;;;;;;;;;4.00;4.00;;;;;;;;5027047;28;45774;-65
2022/05/21 04:32:53;;;;;;;;;2.00;2.00;;;;;;;;5032532;28;46498;-65
2022/05/21 04:35:19;;;;;;;;;6.33;3.67;;;;;;;;5032793;28;45611;-65
2022/05/21 04:37:45;;;;;;;;;2.75;2.75;;;;;;;;5034914;28;45354;-65
2022/05/21 04:40:11;;;;;;;;;2.75;2.50;;;;;;;;5031400;28;45660;-65
2022/05/21 04:42:37;;;;;;;;;4.00;4.00;;;;;;;;5030897;28;45859;-65
2022/05/21 04:45:03;;;;;;;;;6.75;4.00;;;;;;;;5032297;28;45602;-64
2022/05/21 04:47:28;;;;;;;;;2.00;2.00;;;;;;;;5032605;28;45465;-65
2022/05/21 04:49:53;;;;;;;;;4.00;4.00;;;;;;;;5033929;28;45265;-64
2022/05/21 04:52:18;;;;;;;;;3.75;3.50;;;;;;;;5033124;28;45377;-64
2022/05/21 04:54:44;;;;;;;;;4.25;3.00;;;;;;;;5032219;28;45416;-64
2022/05/21 04:57:09;;;;;;;;;4.75;4.50;;;;;;;;5031357;28;45450;-64
2022/05/21 04:59:34;;;;;;;;;6.75;4.00;;;;;;;;5031170;28;47617;-64
2022/05/21 05:01:59;;;;;;;;;3.50;3.50;;;;;;;;5033050;28;45525;-65
2022/05/21 05:04:25;;;;;;;;;2.75;2.50;;;;;;;;5030901;28;45580;-65
2022/05/21 05:06:50;;;;;;;;;3.00;3.00;;;;;;;;5030775;28;45572;-66
2022/05/21 05:09:19;;;;;;;;;4.00;4.00;;;;;;;;5032320;28;45395;-65
2022/05/21 05:11:44;;;;;;;;;4.50;3.00;;;;;;;;5032286;28;45830;-65
2022/05/21 05:14:10;;;;;;;;;5.25;4.75;;;;;;;;5031880;28;45440;-65
2022/05/21 05:16:35;;;;;;;;;4.75;4.75;;;;;;;;5034655;28;46159;-65
2022/05/21 05:19:00;;;;;;;;;4.00;4.00;;;;;;;;5032191;28;45256;-64
2022/05/21 05:21:26;;;;;;;;;7.00;4.75;;;;;;;;5030616;28;45494;-65
2022/05/21 05:23:51;;;;;;;;;6.50;5.75;;;;;;;;5032140;28;45366;-65
2022/05/21 05:26:16;;;;;;;;;5.00;5.00;;;;;;;;5032390;28;45358;-65
2022/05/21 05:28:42;;;;;;;;;6.50;4.50;;;;;;;;5034279;28;45776;-65
2022/05/21 05:31:07;;;;;;;;;5.50;5.00;;;;;;;;5031349;28;45527;-67
2022/05/21 05:33:33;;;;;;;;;5.50;5.50;;;;;;;;5030543;28;45465;-67
2022/05/21 05:35:58;;;;;;;;;4.50;4.50;;;;;;;;5030541;28;45933;-67
2022/05/21 05:38:23;;;;;;;;;4.75;4.75;;;;;;;;5030588;28;45387;-67
2022/05/21 05:40:50;;;;;;;;;4.75;4.75;;;;;;;;5028946;28;48419;-67
2022/05/21 05:43:16;;;;;;;;;4.25;4.25;;;;;;;;5030936;28;45873;-66
2022/05/21 05:45:41;;;;;;;;;5.00;5.00;;;;;;;;5027190;28;45437;-67
2022/05/21 05:48:06;;;;;;;;;7.25;3.75;;;;;;;;5021292;28;45480;-67
2022/05/21 05:50:32;;;;;;;;;3.50;3.50;;;;;;;;5031841;28;45772;-67
2022/05/21 05:53:01;;;;;;;;;4.50;4.00;;;;;;;;5029507;28;45475;-67
2022/05/21 05:55:26;;;;;;;;;2.75;2.75;;;;;;;;5033599;28;45569;-67
2022/05/21 05:57:52;;;;;;;;;6.00;4.00;;;;;;;;5031388;28;45597;-67
2022/05/21 06:00:18;;;;;;;;;4.00;4.00;;;;;;;;5030221;28;46455;-67
2022/05/21 06:02:59;;;;;;;;;5.50;4.50;;;;;;;;5029611;28;45497;-67
2022/05/21 06:05:25;;;;;;;;;5.25;4.00;;;;;;;;5016590;28;45655;-66
2022/05/21 06:07:52;;;;;;;;;2.67;2.67;;;;;;;;5031073;28;45354;-67
2022/05/21 06:10:18;;;;;;;;;6.00;3.00;;;;;;;;5028065;28;47573;-67
2022/05/21 06:12:44;;;;;;;;;3.75;3.75;;;;;;;;5029989;28;45400;-67
2022/05/21 06:15:10;;;;;;;;;5.25;4.25;;;;;;;;5035030;28;45773;-67
2022/05/21 06:17:35;;;;;;;;;4.00;4.00;;;;;;;;5032714;28;45865;-67
2022/05/21 06:20:01;;;;;;;;;2.75;2.75;;;;;;;;5030417;28;45679;-68
2022/05/21 06:22:26;;;;;;;;;5.00;5.00;;;;;;;;5027984;28;45469;-66
2022/05/21 06:24:51;;;;;;;;;2.75;2.50;;;;;;;;5020946;28;45647;-66
2022/05/21 06:27:16;;;;;;;;;3.33;2.00;;;;;;;;5027366;28;45457;-66
2022/05/21 06:29:41;;;;;;;;;3.00;1.50;;;;;;;;5028866;28;45545;-65
2022/05/21 06:32:07;;;;;;;;;1.75;1.75;;;;;;;;5027144;28;45836;-66
2022/05/21 06:34:34;;;;;;;;;2.00;2.00;;;;;;;;5028262;28;45488;-65
2022/05/21 06:37:03;;;;;;;;;4.75;2.00;;;;;;;;5022127;28;45437;-65
2022/05/21 06:39:31;;;;;;;;;2.67;2.00;;;;;;;;5028000;28;47922;-66
2022/05/21 06:41:56;;;;;;;;;4.75;3.25;;;;;;;;5028577;28;45479;-65
2022/05/21 06:44:21;;;;;;;;;2.50;2.25;;;;;;;;5023619;28;45511;-65
2022/05/21 06:46:47;;;;;;;;;1.67;1.67;;;;;;;;5035078;28;45491;-66
2022/05/21 06:49:12;;;;;;;;;2.75;2.75;;;;;;;;5017719;28;46496;-66
2022/05/21 06:51:38;;;;;;;;;4.00;4.00;;;;;;;;5019345;28;50925;-66
2022/05/21 06:54:03;;;;;;;;;6.25;5.50;;;;;;;;5022535;28;45523;-66
2022/05/21 06:56:28;;;;;;;;;3.50;3.00;;;;;;;;5026813;28;45339;-66
2022/05/21 06:58:53;;;;;;;;;4.00;4.00;;;;;;;;5015715;28;46348;-65
2022/05/21 07:01:18;;;;;;;;;3.25;3.25;;;;;;;;5028085;28;45347;-65
2022/05/21 07:03:44;;;;;;;;;3.00;3.00;;;;;;;;5028330;28;45699;-65
2022/05/21 07:08:53;;;;;;;;;5.67;2.67;;;;;;;;5028427;28;45380;-67
2022/05/21 07:11:18;;;;;;;;;1.33;1.33;;;;;;;;5019990;28;48641;-65
2022/05/21 07:13:44;;;;;;;;;2.67;2.00;;;;;;;;5026749;28;45397;-66
2022/05/21 07:16:09;;;;;;;;;1.67;1.67;;;;;;;;5019158;28;45468;-65
2022/05/21 07:18:35;;;;;;;;;1.67;1.00;;;;;;;;5028592;28;45543;-66
2022/05/21 07:21:00;;;;;;;;;2.75;2.00;;;;;;;;5025457;28;45286;-65
2022/05/21 07:23:26;;;;;;;;;1.00;1.00;;;;;;;;5031537;28;45412;-65
2022/05/21 07:25:52;;;;;;;;;4.00;1.67;;;;;;;;5021837;28;45455;-66
2022/05/21 07:28:17;;;;;;;;;1.00;1.00;;;;;;;;5019609;28;45599;-65
2022/05/21 07:30:44;;;;;;;;;2.67;1.00;;;;;;;;5034966;28;46340;-65
2022/05/21 07:33:13;;;;;;;;;2.33;1.00;;;;;;;;5019706;28;45533;-66
2022/05/21 07:35:39;;;;;;;;;1.67;0.67;;;;;;;;5013426;28;45497;-65
2022/05/21 07:38:08;;;;;;;;;0.67;0.67;;;;;;;;5030144;28;47737;-66
2022/05/21 07:40:34;;;;;;;;;2.00;1.00;;;;;;;;5034788;28;45388;-66
2022/05/21 07:43:07;;;;;;;;;1.33;1.00;;;;;;;;5030196;28;45455;-66
2022/05/21 07:45:38;;;;;;;;;3.33;1.67;;;;;;;;5029985;28;45499;-66
2022/05/21 07:48:04;;;;;;;;;0.67;0.00;;;;;;;;5029904;28;45709;-63
2022/05/21 07:50:29;;;;;;;;;0.33;0.33;;;;;;;;5033039;28;45473;-65
2022/05/21 07:52:54;;;;;;;;;2.33;0.67;;;;;;;;5032864;28;45476;-65
2022/05/21 07:55:19;;;;;;;;;1.00;1.00;;;;;;;;5028303;28;45372;-68
2022/05/21 07:57:44;;;;;;;;;1.00;1.00;;;;;;;;5027406;28;48506;-70
2022/05/21 08:00:10;;;;;;;;;1.00;1.00;;;;;;;;5028283;28;45500;-69
2022/05/21 08:02:39;;;;;;;;;1.33;1.33;;;;;;;;5032345;28;45287;-69
2022/05/21 08:05:05;;;;;;;;;0.33;0.33;;;;;;;;5031514;28;45365;-69
2022/05/21 08:07:30;;;;;;;;;0.67;0.67;;;;;;;;5022754;28;45555;-68
2022/05/21 08:09:55;;;;;;;;;2.00;0.67;;;;;;;;5026692;28;45412;-69
2022/05/21 08:12:21;;;;;;;;;1.00;1.00;;;;;;;;5022504;28;45645;-68
2022/05/21 08:14:46;;;;;;;;;1.00;1.00;;;;;;;;5030055;28;45352;-70
2022/05/21 08:17:12;;;;;;;;;1.00;1.00;;;;;;;;5029715;28;45869;-69
2022/05/21 08:19:37;;;;;;;;;1.00;1.00;;;;;;;;5029320;28;45612;-70
2022/05/21 08:27:31;;;;;;;;;1.00;1.00;;;;;;;;5034869;28;45733;-70
2022/05/21 08:29:56;;;;;;;;;0.67;0.67;;;;;;;;5030347;28;45417;-71
2022/05/21 08:32:21;;;;;;;;;1.00;0.67;;;;;;;;5026248;28;45448;-69
2022/05/21 08:34:47;;;;;;;;;1.00;1.00;;;;;;;;5027527;28;45359;-69
2022/05/21 08:37:12;;;;;;;;;0.33;0.00;;;;;;;;5028673;28;46342;-70
2022/05/21 08:39:38;;;;;;;;;1.00;1.00;;;;;;;;5033007;28;45441;-71
2022/05/21 08:42:26;;;;;;;;;1.67;0.00;;;;;;;;5047431;28;45388;-70
2022/05/21 08:44:54;;;;;;;;;1.00;1.00;;;;;;;;5022769;28;45487;-70
2022/05/21 08:47:21;;;;;;;;;0.00;0.00;;;;;;;;5025740;28;46482;-69
2022/05/21 08:49:50;;;;;;;;;0.67;0.67;;;;;;;;5037655;28;45385;-71
2022/05/21 08:52:20;;;;;;;;;0.00;0.00;;;;;;;;5033998;28;45426;-71
2022/05/21 08:54:47;;;;;;;;;2.00;1.00;;;;;;;;5031430;28;45745;-72
2022/05/21 08:57:19;;;;;;;;;1.00;0.00;;;;;;;;5047213;28;47726;-69
2022/05/21 09:00:03;;;;;;;;;0.00;0.00;;;;;;;;5032578;28;45370;-69
2022/05/21 09:02:33;;;;;;;;;1.00;1.00;;;;;;;;5032916;28;45303;-70
2022/05/21 09:04:58;;;;;;;;;1.33;0.00;;;;;;;;5033446;28;45352;-70
2022/05/21 09:07:24;;;;;;;;;2.00;1.00;;;;;;;;5030669;28;47409;-70
2022/05/21 09:10:08;;;;;;;;;0.67;0.67;;;;;;;;5032435;28;47740;-70
2022/05/21 09:12:41;;;;;;;;;0.33;0.33;;;;;;;;5032228;28;45542;-70
2022/05/21 09:15:07;;;;;;;;;1.33;1.33;;;;;;;;5035443;28;45557;-70
2022/05/21 09:17:41;;;;;;;;;0.00;0.00;;;;;;;;5031804;28;45760;-70
2022/05/21 09:20:14;;;;;;;;;2.00;1.00;;;;;;;;5033282;28;45467;-70
2022/05/21 09:22:39;;;;;;;;;1.00;1.00;;;;;;;;5033414;28;45398;-70
2022/05/21 09:25:16;;;;;;;;;2.00;2.00;;;;;;;;5031467;28;46136;-71
2022/05/21 09:27:43;;;;;;;;;0.00;0.00;;;;;;;;5033328;28;45658;-69
2022/05/21 09:30:12;;;;;;;;;1.00;1.00;;;;;;;;5035323;28;45314;-70
2022/05/21 09:32:37;;;;;;;;;1.00;1.00;;;;;;;;5028344;28;45404;-70
2022/05/21 09:35:11;;;;;;;;;1.00;1.00;;;;;;;;5026240;28;45502;-70
2022/05/21 09:37:37;;;;;;;;;1.00;1.00;;;;;;;;5031010;28;46450;-70
2022/05/21 09:40:22;;;;;;;;;2.25;1.50;;;;;;;;5031829;28;46281;-70
2022/05/21 09:45:33;;;;;;;;;1.00;1.00;;;;;;;;5032075;28;45346;-71
2022/05/21 09:48:01;;;;;;;;;1.00;1.00;;;;;;;;5035218;28;45441;-70
2022/05/21 09:50:27;;;;;;;;;1.00;1.00;;;;;;;;5031064;28;45329;-71
2022/05/21 09:52:52;;;;;;;;;0.75;0.75;;;;;;;;5027313;28;45505;-70
2022/05/21 09:55:27;;;;;;;;;0.00;0.00;;;;;;;;5035788;28;45351;-70
2022/05/21 09:57:54;;;;;;;;;2.00;1.75;;;;;;;;5033159;28;48929;-69
2022/05/21 10:00:26;;;;;;;;;1.00;1.00;;;;;;;;5037366;28;45471;-72
2022/05/21 10:02:53;;;;;;;;;2.50;1.00;;;;;;;;5036084;28;45496;-70
2022/05/21 10:05:39;;;;;;;;;1.00;1.00;;;;;;;;5035241;28;45467;-71
2022/05/21 10:10:58;;;;;;;;;1.00;1.00;;;;;;;;5035086;28;45365;-73
2022/05/21 10:13:23;;;;;;;;;1.00;1.00;;;;;;;;5037687;28;45505;-72
2022/05/21 10:15:51;;;;;;;;;2.00;1.00;;;;;;;;5035541;28;45431;-71
2022/05/21 10:18:22;;;;;;;;;1.25;1.25;;;;;;;;5032212;28;48887;-72
2022/05/21 10:20:51;;;;;;;;;1.50;1.25;;;;;;;;5034480;28;45421;-70
2022/05/21 10:23:33;;;;;;;;;1.00;1.00;;;;;;;;5032751;28;45497;-70
2022/05/21 10:26:02;;;;;;;;;2.75;1.25;;;;;;;;5032798;28;45361;-71
2022/05/21 10:28:45;;;;;;;;;1.50;1.50;;;;;;;;5033160;28;45736;-70
2022/05/21 10:31:31;;;;;;;;;1.00;1.00;;;;;;;;5034335;28;45445;-70
2022/05/21 10:33:59;;;;;;;;;1.50;1.50;;;;;;;;5017790;28;45590;-70
2022/05/21 10:36:39;;;;;;;;;0.75;0.75;;;;;;;;5035608;28;45366;-71
2022/05/21 10:39:20;;;;;;;;;1.00;1.00;;;;;;;;5034994;28;46409;-71
2022/05/21 10:41:45;;;;;;;;;0.50;0.50;;;;;;;;5030510;28;45477;-71
2022/05/21 10:44:34;;;;;;;;;1.50;1.50;;;;;;;;5024203;28;45593;-70
2022/05/21 10:47:02;;;;;;;;;3.00;1.75;;;;;;;;5027656;28;45502;-71
2022/05/21 10:49:42;;;;;;;;;2.00;2.00;;;;;;;;5033005;28;45851;-70
2022/05/21 10:52:21;;;;;;;;;1.00;1.00;;;;;;;;5032556;28;46413;-71
2022/05/21 10:54:46;;;;;;;;;1.75;1.75;;;;;;;;5033292;28;45362;-70
2022/05/21 10:57:20;;;;;;;;;2.50;1.75;;;;;;;;5035646;28;45405;-71
2022/05/21 10:59:53;;;;;;;;;1.50;1.00;;;;;;;;5033938;28;46471;-71
2022/05/21 11:02:30;;;;;;;;;1.00;1.00;;;;;;;;5033073;28;45442;-70
2022/05/21 11:05:14;;;;;;;;;1.50;1.50;;;;;;;;5046731;28;45873;-69
2022/05/21 11:07:39;;;;;;;;;1.50;1.00;;;;;;;;5025117;28;45486;-70
2022/05/21 11:10:34;;;;;;;;;1.25;1.25;;;;;;;;5033967;28;45806;-72
2022/05/21 11:13:21;;;;;;;;;1.00;1.00;;;;;;;;5008849;28;46136;-70
2022/05/21 11:15:49;;;;;;;;;2.50;0.50;;;;;;;;4992895;28;45468;-71
2022/05/21 11:18:21;;;;;;;;;1.00;1.00;;;;;;;;4994580;28;45518;-70
2022/05/21 11:20:53;;;;;;;;;2.00;1.00;;;;;;;;4977232;28;45346;-69
2022/05/21 11:23:21;;;;;;;;;1.50;1.50;;;;;;;;4991438;28;45459;-69
2022/05/21 11:25:55;;;;;;;;;3.00;3.00;;;;;;;;5006368;28;45565;-69
2022/05/21 11:28:34;;;;;;;;;2.25;2.00;;;;;;;;4987125;28;45960;-70
2022/05/21 11:31:07;;;;;;;;;2.00;2.00;;;;;;;;4978406;28;46153;-69
2022/05/21 11:39:04;;;;;;;;;3.00;1.00;;;;;;;;4994113;28;45483;-70
2022/05/21 11:41:48;;;;;;;;;2.00;1.00;;;;;;;;4976886;28;47434;-70
2022/05/21 11:47:07;;;;;;;;;1.00;1.00;;;;;;;;4993545;28;45427;-69
2022/05/21 11:49:34;;;;;;;;;2.25;2.25;;;;;;;;5010114;28;45495;-71
2022/05/21 11:52:19;;;;;;;;;2.00;2.00;;;;;;;;5030435;28;48745;-70
2022/05/21 11:54:47;;;;;;;;;1.75;1.75;;;;;;;;5033098;28;45462;-68
2022/05/21 11:57:33;;;;;;;;;1.50;1.50;;;;;;;;5030366;28;45460;-69
2022/05/21 12:00:00;;;;;;;;;3.50;3.00;;;;;;;;5021770;28;47152;-68
2022/05/21 12:02:48;;;;;;;;;3.50;3.50;;;;;;;;5030643;28;47202;-70
2022/05/21 12:05:46;;;;;;;;;1.00;1.00;;;;;;;;4972191;28;45573;-69
2022/05/21 12:08:25;;;;;;;;;1.00;1.00;;;;;;;;4971941;28;45989;-70
2022/05/21 12:10:56;;;;;;;;;1.00;1.00;;;;;;;;4971863;28;45490;-69
2022/05/21 12:13:41;;;;;;;;;1.75;1.00;;;;;;;;4973074;28;45854;-70
2022/05/21 12:16:21;;;;;;;;;2.00;2.00;;;;;;;;4958814;28;46544;-70
2022/05/21 12:18:59;;;;;;;;;1.75;1.75;;;;;;;;4973588;28;45375;-70
2022/05/21 12:21:27;;;;;;;;;1.00;1.00;;;;;;;;4954712;28;45507;-69
2022/05/21 12:23:58;;;;;;;;;1.00;1.00;;;;;;;;4956807;28;48575;-69
2022/05/21 12:26:44;;;;;;;;;1.00;1.00;;;;;;;;4956322;28;45836;-69
2022/05/21 12:29:11;;;;;;;;;1.75;1.75;;;;;;;;4972950;28;45393;-68
2022/05/21 12:31:40;;;;;;;;;2.00;1.50;;;;;;;;4972841;28;45348;-70
2022/05/21 12:34:24;;;;;;;;;2.00;2.00;;;;;;;;4972727;28;45499;-69
2022/05/21 12:37:05;;;;;;;;;1.25;1.00;;;;;;;;4973123;28;45388;-68
2022/05/21 12:39:50;;;;;;;;;1.75;1.75;;;;;;;;4973523;28;45551;-69
2022/05/21 12:42:19;;;;;;;;;2.00;2.00;;;;;;;;4993630;28;45391;-69
2022/05/21 12:44:47;;;;;;;;;1.00;1.00;;;;;;;;5033028;28;45417;-67
2022/05/21 12:47:13;;;;;;;;;2.00;2.00;;;;;;;;5031491;28;45392;-67
2022/05/21 12:49:49;;;;;;;;;2.75;1.00;;;;;;;;5027673;28;45286;-70
2022/05/21 12:52:29;;;;;;;;;1.00;1.00;;;;;;;;5029437;28;45493;-67
2022/05/21 12:55:13;;;;;;;;;2.00;2.00;;;;;;;;5032012;28;45672;-69
2022/05/21 12:57:39;;;;;;;;;1.25;1.00;;;;;;;;5030701;28;46509;-70
2022/05/21 13:00:05;;;;;;;;;1.00;1.00;;;;;;;;5027916;28;45476;-69
2022/05/21 13:02:38;;;;;;;;;3.00;3.00;;;;;;;;5020565;28;45563;-70
2022/05/21 13:05:04;;;;;;;;;3.00;1.25;;;;;;;;5022650;28;46220;-69
2022/05/21 13:07:41;;;;;;;;;1.50;1.00;;;;;;;;5024861;28;45463;-70
2022/05/21 13:10:12;;;;;;;;;1.25;1.00;;;;;;;;5019660;28;45994;-69
2022/05/21 13:12:45;;;;;;;;;5.75;3.00;;;;;;;;5029973;28;45508;-70
2022/05/21 13:15:18;;;;;;;;;1.50;1.50;;;;;;;;5014647;28;45582;-69
2022/05/21 13:17:52;;;;;;;;;1.00;1.00;;;;;;;;5026453;28;45430;-67
2022/05/21 13:20:24;;;;;;;;;2.00;2.00;;;;;;;;5026852;28;45336;-68
2022/05/21 13:22:55;;;;;;;;;1.25;1.25;;;;;;;;5027424;28;45484;-68
2022/05/21 13:25:22;;;;;;;;;1.00;1.00;;;;;;;;5026690;28;45376;-68
2022/05/21 13:27:49;;;;;;;;;2.00;1.00;;;;;;;;5030931;28;45480;-70
2022/05/21 13:30:16;;;;;;;;;1.00;1.00;;;;;;;;5029883;28;45369;-69
2022/05/21 13:32:41;;;;;;;;;1.00;1.00;;;;;;;;5028198;28;45672;-69
2022/05/21 13:35:21;;;;;;;;;1.75;1.25;;;;;;;;5028047;28;46150;-69
2022/05/21 13:37:46;;;;;;;;;2.00;2.00;;;;;;;;5024786;28;45606;-70
2022/05/21 13:40:20;;;;;;;;;1.25;1.25;;;;;;;;5019437;28;45381;-69
2022/05/21 13:42:47;;;;;;;;;2.00;2.00;;;;;;;;5014382;28;45442;-69
2022/05/21 13:45:25;;;;;;;;;1.00;1.00;;;;;;;;5018491;28;46805;-69
2022/05/21 13:47:56;;;;;;;;;1.00;1.00;;;;;;;;5020325;28;45464;-69
2022/05/21 13:50:24;;;;;;;;;1.00;1.00;;;;;;;;5023210;28;45536;-70
2022/05/21 13:52:49;;;;;;;;;2.00;2.00;;;;;;;;5025172;28;45541;-70
2022/05/21 13:55:15;;;;;;;;;1.00;1.00;;;;;;;;5026476;28;47373;-70
2022/05/21 13:57:40;;;;;;;;;2.00;1.00;;;;;;;;5030424;28;45615;-70
2022/05/21 14:00:14;;;;;;;;;1.75;1.75;;;;;;;;5027583;28;45494;-68
2022/05/21 14:02:42;;;;;;;;;2.00;2.00;;;;;;;;5030183;28;45554;-68
2022/05/21 14:05:27;;;;;;;;;3.00;1.00;;;;;;;;5020714;28;46513;-69
2022/05/21 14:08:00;;;;;;;;;1.00;1.00;;;;;;;;5041609;28;45583;-68
2022/05/21 14:10:38;;;;;;;;;0.75;0.75;;;;;;;;5025309;28;45390;-70
2022/05/21 14:13:05;;;;;;;;;2.25;1.75;;;;;;;;5028407;28;45354;-69
2022/05/21 14:15:33;;;;;;;;;2.00;2.00;;;;;;;;5012096;28;47324;-68
2022/05/21 14:18:04;;;;;;;;;3.00;3.00;;;;;;;;5026166;28;45715;-69
2022/05/21 14:20:36;;;;;;;;;1.00;1.00;;;;;;;;5026867;28;45403;-69
2022/05/21 14:23:21;;;;;;;;;2.75;2.75;;;;;;;;5024737;28;46047;-69
2022/05/21 14:25:46;;;;;;;;;3.25;3.25;;;;;;;;5024928;28;45873;-69
2022/05/21 14:28:14;;;;;;;;;1.25;1.25;;;;;;;;5027068;28;47646;-68
2022/05/21 14:30:41;;;;;;;;;0.50;0.25;;;;;;;;5014035;28;45505;-69
2022/05/21 14:33:18;;;;;;;;;2.00;2.00;;;;;;;;5028513;28;45420;-69
2022/05/21 14:35:44;;;;;;;;;1.75;1.75;;;;;;;;5037274;28;47633;-69
2022/05/21 14:38:10;;;;;;;;;2.50;1.00;;;;;;;;5023635;28;45757;-69
2022/05/21 14:40:47;;;;;;;;;1.75;1.75;;;;;;;;5045004;28;45470;-69
2022/05/21 14:43:32;;;;;;;;;3.25;2.00;;;;;;;;5026091;28;45662;-68
2022/05/21 14:45:59;;;;;;;;;1.00;1.00;;;;;;;;5048051;28;47884;-67
2022/05/21 14:48:25;;;;;;;;;1.00;1.00;;;;;;;;5018238;28;45369;-70
2022/05/21 14:53:38;;;;;;;;;3.75;2.00;;;;;;;;5019098;28;45528;-68
2022/05/21 14:56:10;;;;;;;;;1.00;1.00;;;;;;;;5022017;28;46642;-69
2022/05/21 14:58:35;;;;;;;;;1.50;1.50;;;;;;;;5027427;28;45812;-69
2022/05/21 15:01:01;;;;;;;;;5.00;2.75;;;;;;;;5016981;28;45409;-69
2022/05/21 15:03:26;;;;;;;;;1.25;1.25;;;;;;;;5028433;28;45460;-70
2022/05/21 15:05:51;;;;;;;;;2.00;1.00;;;;;;;;5029965;28;45769;-66
2022/05/21 15:08:19;;;;;;;;;2.00;2.00;;;;;;;;5027917;28;45312;-67
2022/05/21 15:10:45;;;;;;;;;2.00;2.00;;;;;;;;5027819;28;45557;-67
2022/05/21 15:13:10;;;;;;;;;2.75;1.25;;;;;;;;5029881;28;45596;-68
2022/05/21 15:15:35;;;;;;;;;2.75;1.00;;;;;;;;5047939;28;48516;-69
2022/05/21 15:18:01;;;;;;;;;1.00;1.00;;;;;;;;5028890;28;45422;-67
2022/05/21 15:20:26;;;;;;;;;1.25;1.25;;;;;;;;5024803;28;45663;-70
2022/05/21 15:22:52;;;;;;;;;1.50;1.50;;;;;;;;5027952;28;45332;-68